Time;durP1;ratioP1;P1;durP2;ratioP2;P2;SDS_P1;SDS_P2;PMS_P1;PMS_P2;Temp;Humidity;BMP_temperature;BMP_pressure;BME280_temperature;BME280_humidity;BME280_pressure;Samples;Min_cycle;Max_cycle;Signal;HPM_P1;HPM_P2
2023/04/08 00:01:31;;;;;;;15.60;10.87;;;;;;;1.58;100.00;96768.75;10454581;28;20303;-74
2023/04/08 00:06:32;;;;;;;14.93;10.73;;;;;;;1.64;100.00;96766.69;10455221;28;20207;-75
2023/04/08 00:11:32;;;;;;;16.90;10.93;;;;;;;1.56;100.00;96762.03;10454597;28;20644;-75
2023/04/08 00:16:32;;;;;;;14.87;10.60;;;;;;;1.53;100.00;96757.91;10454331;28;20192;-75
2023/04/08 00:21:33;;;;;;;13.87;10.00;;;;;;;1.62;100.00;96758.22;10454369;28;20228;-74
2023/04/08 00:26:33;;;;;;;12.33;9.37;;;;;;;1.58;100.00;96755.84;10454378;28;20202;-74
2023/04/08 00:31:34;;;;;;;14.13;10.17;;;;;;;1.58;100.00;96762.78;10453846;28;20739;-75
2023/04/08 00:36:35;;;;;;;13.10;9.90;;;;;;;1.43;100.00;96764.59;10453711;28;20329;-75
2023/04/08 00:41:35;;;;;;;12.90;9.60;;;;;;;1.57;100.00;96763.69;10453457;28;20699;-74
2023/04/08 00:46:38;;;;;;;13.20;9.40;;;;;;;1.59;100.00;96756.66;10453216;28;20227;-74
2023/04/08 00:51:38;;;;;;;13.13;9.73;;;;;;;1.67;100.00;96757.00;10453462;28;20766;-74
2023/04/08 00:56:38;;;;;;;11.50;8.63;;;;;;;1.82;100.00;96754.34;10449795;28;20198;-75
2023/04/08 01:02:05;;;;;;;12.70;8.33;;;;;;;1.67;100.00;96754.44;10451635;28;20255;-74
2023/04/08 01:07:25;;;;;;;12.30;8.27;;;;;;;1.69;100.00;96752.56;10435196;28;20184;-75
2023/04/08 01:12:32;;;;;;;12.17;8.60;;;;;;;1.93;100.00;96757.88;10434301;28;20192;-74
2023/04/08 01:17:33;;;;;;;10.50;7.27;;;;;;;2.01;100.00;96756.56;10451914;28;20660;-75
2023/04/08 01:22:42;;;;;;;11.27;7.17;;;;;;;1.89;100.00;96747.84;10434073;28;20215;-74
2023/04/08 01:27:43;;;;;;;8.77;6.87;;;;;;;1.93;100.00;96751.84;10434234;28;20196;-74
2023/04/08 01:32:45;;;;;;;11.63;7.33;;;;;;;1.78;100.00;96753.72;10417328;28;20691;-75
2023/04/08 01:37:46;;;;;;;9.10;6.90;;;;;;;1.71;100.00;96742.13;10433800;28;20730;-74
2023/04/08 01:42:47;;;;;;;12.27;7.60;;;;;;;1.64;100.00;96744.31;10416160;28;20235;-74
2023/04/08 01:47:48;;;;;;;11.90;7.60;;;;;;;1.75;100.00;96746.19;10417456;28;20223;-74
2023/04/08 01:52:51;;;;;;;11.97;8.03;;;;;;;1.87;100.00;96744.53;10433436;28;20184;-75
2023/04/08 01:57:53;;;;;;;12.90;7.57;;;;;;;1.88;100.00;96759.91;10449470;28;20283;-75
2023/04/08 02:02:54;;;;;;;14.97;8.03;;;;;;;1.87;100.00;96757.44;10433244;28;20218;-75
2023/04/08 02:07:54;;;;;;;14.80;8.27;;;;;;;1.94;100.00;96756.09;10416062;28;20798;-74
2023/04/08 02:12:55;;;;;;;14.47;8.23;;;;;;;1.94;100.00;96753.53;10450707;28;20326;-74
2023/04/08 02:17:59;;;;;;;13.47;7.87;;;;;;;2.06;100.00;96757.88;10415935;28;20184;-74
2023/04/08 02:23:13;;;;;;;14.60;7.90;;;;;;;1.95;100.00;96758.59;10432744;28;20235;-74
2023/04/08 02:28:15;;;;;;;14.13;8.27;;;;;;;2.02;100.00;96771.94;10439783;28;20245;-75
2023/04/08 02:33:17;;;;;;;16.60;8.80;;;;;;;2.04;100.00;96789.94;10440886;28;20187;-75
2023/04/08 02:38:18;;;;;;;14.23;7.90;;;;;;;2.09;100.00;96791.25;10458016;28;20231;-75
2023/04/08 02:43:18;;;;;;;15.40;7.97;;;;;;;2.10;100.00;96795.50;10440027;28;20604;-75
2023/04/08 02:48:19;;;;;;;16.93;8.17;;;;;;;2.10;100.00;96795.50;10424528;28;20192;-74
2023/04/08 02:53:19;;;;;;;12.27;6.33;;;;;;;2.14;100.00;96814.22;10398836;28;20311;-74
2023/04/08 02:58:19;;;;;;;10.63;6.30;;;;;;;2.22;100.00;96809.38;10382148;28;20195;-75
2023/04/08 03:03:26;;;;;;;11.13;5.87;;;;;;;2.24;100.00;96806.69;10409653;28;20707;-75
2023/04/08 03:08:26;;;;;;;9.57;5.43;;;;;;;2.37;100.00;96812.69;10454046;28;20196;-75
2023/04/08 03:13:28;;;;;;;8.70;4.90;;;;;;;2.39;100.00;96802.22;10453351;28;20596;-75
2023/04/08 03:18:28;;;;;;;9.80;5.23;;;;;;;2.29;100.00;96810.59;10453118;28;20192;-75
2023/04/08 03:23:29;;;;;;;7.97;4.97;;;;;;;2.40;100.00;96809.88;10452565;28;20631;-76
2023/04/08 03:28:29;;;;;;;9.43;5.17;;;;;;;2.35;100.00;96806.78;10453045;28;20196;-75
2023/04/08 03:33:30;;;;;;;8.13;4.83;;;;;;;2.32;100.00;96796.66;10452365;28;20794;-75
2023/04/08 03:38:30;;;;;;;6.73;4.00;;;;;;;2.40;100.00;96791.78;10451300;28;20239;-75
2023/04/08 03:43:31;;;;;;;6.97;4.47;;;;;;;2.38;100.00;96798.81;10434407;28;20578;-75
2023/04/08 03:48:31;;;;;;;5.43;3.50;;;;;;;2.34;100.00;96799.97;10434111;28;20644;-75
2023/04/08 03:53:32;;;;;;;5.57;3.60;;;;;;;2.38;100.00;96795.44;10449151;28;20187;-76
2023/04/08 03:58:32;;;;;;;6.27;3.27;;;;;;;2.35;100.00;96804.22;10450738;28;20335;-75
2023/04/08 04:03:32;;;;;;;6.57;3.83;;;;;;;2.41;100.00;96798.63;10453668;28;20226;-75
2023/04/08 04:08:33;;;;;;;5.07;3.37;;;;;;;2.41;100.00;96811.56;10454826;28;20192;-76
2023/04/08 04:13:33;;;;;;;6.47;3.57;;;;;;;2.45;100.00;96819.91;10452795;28;20206;-74
2023/04/08 04:18:33;;;;;;;4.77;3.40;;;;;;;2.40;100.00;96822.81;10454809;28;20204;-75
2023/04/08 04:23:34;;;;;;;5.33;3.63;;;;;;;2.52;100.00;96825.53;10419134;28;20338;-75
2023/04/08 04:28:35;;;;;;;5.27;3.67;;;;;;;2.58;100.00;96822.53;10454461;28;20655;-75
2023/04/08 04:33:35;;;;;;;6.83;4.03;;;;;;;2.47;100.00;96831.81;10453700;28;20187;-75
2023/04/08 04:38:35;;;;;;;5.43;3.30;;;;;;;2.45;100.00;96835.44;10453579;28;20263;-74
2023/04/08 04:43:36;;;;;;;6.07;3.63;;;;;;;2.46;100.00;96837.09;10453233;28;20586;-74
2023/04/08 04:48:36;;;;;;;6.07;3.63;;;;;;;2.56;100.00;96838.13;10452163;28;20188;-75
2023/04/08 04:53:37;;;;;;;6.27;3.90;;;;;;;2.52;100.00;96846.22;10453371;28;20648;-74
2023/04/08 04:58:37;;;;;;;5.33;4.27;;;;;;;2.59;100.00;96843.09;10452828;28;20547;-75
2023/04/08 05:03:37;;;;;;;6.13;3.90;;;;;;;2.53;100.00;96845.25;10452665;28;20223;-75
2023/04/08 05:08:38;;;;;;;6.93;4.37;;;;;;;2.52;100.00;96857.38;10452463;28;20220;-74
2023/04/08 05:13:38;;;;;;;10.07;4.53;;;;;;;2.50;100.00;96860.06;10452555;28;20195;-75
2023/04/08 05:18:38;;;;;;;10.97;4.60;;;;;;;2.52;100.00;96864.31;10451374;28;20199;-75
2023/04/08 05:23:39;;;;;;;6.67;4.13;;;;;;;2.62;100.00;96881.69;10451218;28;20231;-75
2023/04/08 05:28:39;;;;;;;9.27;4.03;;;;;;;2.73;100.00;96878.38;10450844;28;20266;-75
2023/04/08 05:33:40;;;;;;;9.73;3.80;;;;;;;2.69;100.00;96887.25;10451775;28;20199;-75
2023/04/08 05:38:42;;;;;;;8.93;4.13;;;;;;;2.72;100.00;96896.59;10434297;28;20223;-75
2023/04/08 05:43:42;;;;;;;8.20;4.40;;;;;;;2.67;100.00;96899.47;10451297;28;20244;-75
2023/04/08 05:48:42;;;;;;;7.40;3.90;;;;;;;2.73;100.00;96903.44;10433717;28;20202;-75
2023/04/08 05:53:45;;;;;;;7.67;4.30;;;;;;;2.75;100.00;96897.19;10454045;28;20264;-76
2023/04/08 05:58:45;;;;;;;7.70;4.07;;;;;;;2.85;100.00;96898.25;10452054;28;20183;-75
2023/04/08 06:03:45;;;;;;;6.70;4.13;;;;;;;2.82;100.00;96913.97;10432932;28;20215;-75
2023/04/08 06:08:46;;;;;;;7.33;4.23;;;;;;;2.81;100.00;96911.50;10450508;28;20207;-75
2023/04/08 06:13:46;;;;;;;6.63;4.33;;;;;;;2.86;100.00;96914.59;10430899;28;20184;-76
2023/04/08 06:18:47;;;;;;;7.30;3.97;;;;;;;2.92;100.00;96929.69;10445021;28;20287;-76
2023/04/08 06:23:47;;;;;;;7.73;4.27;;;;;;;2.90;100.00;96928.97;10447521;28;20684;-76
2023/04/08 06:28:48;;;;;;;8.23;4.37;;;;;;;3.04;100.00;96935.81;10447694;28;20699;-76
2023/04/08 06:33:48;;;;;;;7.30;4.53;;;;;;;3.04;100.00;96933.22;10447921;28;20596;-76
2023/04/08 06:38:48;;;;;;;11.37;7.17;;;;;;;3.13;100.00;96936.94;10447924;28;20783;-76
2023/04/08 06:43:49;;;;;;;9.47;5.93;;;;;;;3.20;100.00;96944.19;10447181;28;20722;-76
2023/04/08 06:48:49;;;;;;;11.37;6.77;;;;;;;3.22;100.00;96947.50;10447928;28;20648;-76
2023/04/08 06:53:50;;;;;;;13.23;7.33;;;;;;;3.22;100.00;96941.50;10447529;28;20297;-76
2023/04/08 06:58:51;;;;;;;13.40;7.13;;;;;;;3.14;100.00;96954.13;10447739;28;20678;-76
2023/04/08 07:03:51;;;;;;;17.17;8.50;;;;;;;3.24;100.00;96960.34;10446773;28;20557;-76
2023/04/08 07:08:51;;;;;;;17.53;8.73;;;;;;;3.23;100.00;96969.03;10447424;28;20283;-76
2023/04/08 07:13:52;;;;;;;20.90;9.60;;;;;;;3.39;100.00;96980.00;10451621;28;20207;-76
2023/04/08 07:18:52;;;;;;;16.67;8.33;;;;;;;3.29;100.00;96981.59;10454256;28;20188;-75
2023/04/08 07:23:53;;;;;;;16.13;9.43;;;;;;;3.38;100.00;96991.31;10454749;28;20216;-75
2023/04/08 07:28:53;;;;;;;16.90;9.33;;;;;;;3.45;100.00;96990.88;10453898;28;20199;-75
2023/04/08 07:33:53;;;;;;;19.67;11.40;;;;;;;3.61;100.00;97001.00;10454287;28;20245;-75
2023/04/08 07:38:54;;;;;;;21.23;12.27;;;;;;;3.60;100.00;97002.78;10453139;28;20322;-75
2023/04/08 07:43:55;;;;;;;22.30;12.13;;;;;;;3.77;100.00;97005.94;10453071;28;20239;-75
2023/04/08 07:48:55;;;;;;;23.90;14.27;;;;;;;3.55;100.00;97002.25;10453969;28;20279;-75
2023/04/08 07:53:55;;;;;;;23.67;12.70;;;;;;;3.63;100.00;97012.09;10452365;28;20279;-75
2023/04/08 07:58:56;;;;;;;24.60;13.93;;;;;;;3.75;100.00;97008.66;10453126;28;20202;-75
2023/04/08 08:03:56;;;;;;;21.77;12.67;;;;;;;3.81;100.00;97007.41;10453068;28;20226;-75
2023/04/08 08:08:57;;;;;;;22.57;12.30;;;;;;;4.08;100.00;97000.25;10435234;28;20204;-75
2023/04/08 08:13:57;;;;;;;17.07;11.07;;;;;;;4.07;100.00;97000.38;10451937;28;20186;-75
2023/04/08 08:18:58;;;;;;;18.57;11.23;;;;;;;4.20;100.00;97000.34;10451894;28;20214;-75
2023/04/08 08:23:58;;;;;;;17.17;10.80;;;;;;;4.03;100.00;96994.59;10451377;28;20226;-75
2023/04/08 08:29:00;;;;;;;15.23;10.27;;;;;;;4.15;100.00;96986.88;10451075;28;20188;-75
2023/04/08 08:34:00;;;;;;;17.80;13.03;;;;;;;4.27;100.00;96983.41;10451506;28;20188;-75
2023/04/08 08:39:22;;;;;;;15.60;10.97;;;;;;;4.35;100.00;96985.44;10450190;28;20600;-76
2023/04/08 08:44:22;;;;;;;12.00;8.17;;;;;;;4.64;100.00;96978.16;10418705;28;20291;-76
2023/04/08 08:49:23;;;;;;;24.07;14.17;;;;;;;4.71;100.00;96970.72;10410709;28;20184;-75
2023/04/08 08:54:38;;;;;;;12.17;8.70;;;;;;;4.72;100.00;96974.97;10431732;28;20188;-76
2023/04/08 09:00:32;;;;;;;11.57;8.77;;;;;;;4.83;100.00;96986.19;10432953;28;20202;-76
2023/04/08 09:13:16;;;;;;;9.90;7.57;;;;;;;5.20;100.00;96987.81;10458103;28;20556;-75
2023/04/08 09:44:25;;;;;;;11.37;8.00;;;;;;;5.63;100.00;97007.91;10448747;28;20224;-78
2023/04/08 09:49:28;;;;;;;10.37;7.43;;;;;;;5.52;100.00;97013.94;10431809;28;20280;-78
2023/04/08 09:54:53;;;;;;;9.53;7.70;;;;;;;5.48;100.00;96999.53;10431395;28;20525;-78
2023/04/08 10:00:00;;;;;;;12.90;8.20;;;;;;;5.54;100.00;97016.41;10449514;28;20695;-78
2023/04/08 10:05:02;;;;;;;14.00;8.43;;;;;;;5.64;100.00;97019.97;10431077;28;20200;-78
2023/04/08 10:10:03;;;;;;;13.67;9.10;;;;;;;5.85;100.00;97022.69;10412768;28;20660;-78
2023/04/08 10:15:32;;;;;;;10.90;8.37;;;;;;;6.36;100.00;97016.13;10428474;28;20199;-78
2023/04/08 10:20:33;;;;;;;13.43;8.30;;;;;;;6.50;100.00;97001.19;10407305;28;20228;-78
2023/04/08 10:25:34;;;;;;;11.90;8.30;;;;;;;6.55;100.00;97002.44;10447186;28;20198;-77
2023/04/08 10:30:45;;;;;;;14.47;9.50;;;;;;;6.52;100.00;96996.69;10446771;28;20176;-77
2023/04/08 10:35:48;;;;;;;15.50;9.97;;;;;;;6.53;100.00;97008.75;10429022;28;20191;-77
2023/04/08 10:40:48;;;;;;;11.93;8.27;;;;;;;7.29;100.00;97006.81;10446772;28;20265;-75
2023/04/08 10:45:52;;;;;;;11.27;8.20;;;;;;;7.40;100.00;96985.06;10447453;28;20247;-75
2023/04/08 10:50:56;;;;;;;13.80;8.63;;;;;;;7.09;100.00;96985.03;10456752;28;20226;-76
2023/04/08 10:56:05;;;;;;;13.83;10.00;;;;;;;6.40;100.00;96996.72;10456960;28;20274;-75
2023/04/08 11:01:06;;;;;;;17.10;11.37;;;;;;;6.36;100.00;97013.53;10455437;28;20863;-77
2023/04/08 11:06:07;;;;;;;20.00;12.70;;;;;;;6.48;100.00;97011.72;10454252;28;20196;-76
2023/04/08 11:11:08;;;;;;;17.80;11.83;;;;;;;6.54;100.00;96986.97;10455913;28;20239;-76
2023/04/08 11:16:08;;;;;;;21.87;13.23;;;;;;;6.49;100.00;97015.13;10437723;28;20246;-76
2023/04/08 11:21:09;;;;;;;20.37;12.93;;;;;;;6.27;100.00;97027.25;10453827;28;20634;-74
2023/04/08 11:26:10;;;;;;;22.03;13.03;;;;;;;6.15;100.00;97020.44;10436427;28;20624;-75
2023/04/08 11:31:12;;;;;;;20.70;12.93;;;;;;;5.94;100.00;97031.56;10444189;28;20184;-76
2023/04/08 11:36:12;;;;;;;20.77;12.73;;;;;;;6.32;100.00;97042.50;10435330;28;20263;-75
2023/04/08 11:41:13;;;;;;;18.57;12.60;;;;;;;5.89;100.00;97041.47;10436234;28;20736;-76
2023/04/08 11:46:13;;;;;;;18.63;12.23;;;;;;;5.77;100.00;97032.84;10454283;28;20188;-76
2023/04/08 11:51:14;;;;;;;18.50;10.90;;;;;;;6.12;100.00;97031.09;10455121;28;20648;-76
2023/04/08 11:56:19;;;;;;;15.60;10.37;;;;;;;6.17;100.00;97024.59;10453308;28;20238;-75
2023/04/08 12:01:20;;;;;;;16.83;10.60;;;;;;;5.96;100.00;97034.84;10454343;28;20302;-75
2023/04/08 12:06:20;;;;;;;16.00;10.83;;;;;;;6.05;100.00;97034.16;10454658;28;20196;-75
2023/04/08 12:11:21;;;;;;;15.93;10.33;;;;;;;6.06;100.00;97033.22;10452850;28;20188;-75
2023/04/08 12:16:21;;;;;;;18.90;11.13;;;;;;;6.10;100.00;97036.41;10436643;28;20198;-75
2023/04/08 12:21:21;;;;;;;17.80;12.27;;;;;;;6.19;100.00;97034.88;10453198;28;20769;-75
2023/04/08 12:26:22;;;;;;;25.73;15.73;;;;;;;6.15;100.00;97046.44;10433604;28;20656;-75
2023/04/08 12:31:22;;;;;;;31.10;17.17;;;;;;;6.53;100.00;97060.81;10451812;28;20188;-75
2023/04/08 12:36:22;;;;;;;24.93;16.40;;;;;;;6.82;100.00;97047.22;10448975;28;20291;-75
2023/04/08 12:41:49;;;;;;;23.47;14.40;;;;;;;6.67;100.00;97059.69;10449473;28;20227;-75
2023/04/08 12:46:50;;;;;;;24.60;15.47;;;;;;;6.32;100.00;97071.94;10441058;28;20800;-73
2023/04/08 12:51:51;;;;;;;21.00;13.77;;;;;;;6.99;100.00;97064.91;10452089;28;20182;-74
2023/04/08 12:56:51;;;;;;;21.43;13.87;;;;;;;6.34;100.00;97058.81;10452088;28;20198;-75
2023/04/08 13:01:51;;;;;;;21.93;14.80;;;;;;;6.43;100.00;97066.75;10434653;28;20224;-74
2023/04/08 13:06:52;;;;;;;33.77;20.67;;;;;;;6.12;100.00;97076.13;10452586;28;20290;-74
2023/04/08 13:11:52;;;;;;;30.83;18.53;;;;;;;5.84;100.00;97080.00;10448600;28;20188;-73
2023/04/08 13:16:52;;;;;;;35.00;19.17;;;;;;;5.62;100.00;97088.59;10450547;28;20198;-73
2023/04/08 13:21:53;;;;;;;26.80;16.90;;;;;;;5.64;100.00;97097.13;10451806;28;20302;-73
2023/04/08 13:26:53;;;;;;;30.07;17.53;;;;;;;5.97;100.00;97091.16;10452583;28;20206;-73
2023/04/08 13:31:53;;;;;;;33.60;19.47;;;;;;;5.88;100.00;97086.59;10451635;28;20188;-73
2023/04/08 13:36:54;;;;;;;34.77;21.87;;;;;;;6.14;100.00;97094.19;10451668;28;20360;-74
2023/04/08 13:41:55;;;;;;;29.90;19.63;;;;;;;6.62;100.00;97078.28;10429434;28;20232;-74
2023/04/08 13:46:55;;;;;;;33.63;20.10;;;;;;;7.26;100.00;97063.59;10409726;28;20185;-74
2023/04/08 13:51:55;;;;;;;30.13;19.20;;;;;;;7.28;100.00;97059.06;10392331;28;20629;-73
2023/04/08 13:56:56;;;;;;;26.83;15.87;;;;;;;6.58;100.00;97056.03;10409687;28;20609;-73
2023/04/08 14:01:56;;;;;;;25.90;16.20;;;;;;;6.33;100.00;97078.81;10409840;28;20580;-74
2023/04/08 14:06:57;;;;;;;21.30;14.67;;;;;;;6.16;100.00;97069.75;10409866;28;20284;-73
2023/04/08 14:11:57;;;;;;;27.13;16.07;;;;;;;6.21;100.00;97075.41;10409589;28;20608;-75
2023/04/08 14:16:58;;;;;;;20.30;13.07;;;;;;;6.01;100.00;97066.56;10409313;28;20288;-74
2023/04/08 14:21:58;;;;;;;22.53;14.40;;;;;;;6.05;100.00;97086.19;10412839;28;20216;-74
2023/04/08 14:26:58;;;;;;;26.90;14.60;;;;;;;5.46;100.00;97099.34;10417953;28;20204;-75
2023/04/08 14:31:59;;;;;;;23.17;14.47;;;;;;;5.32;100.00;97079.59;10417531;28;20188;-74
2023/04/08 14:36:59;;;;;;;21.60;13.50;;;;;;;5.39;100.00;97093.78;10417576;28;20199;-74
2023/04/08 14:42:00;;;;;;;21.87;13.27;;;;;;;5.29;100.00;97072.03;10438512;28;20326;-75
2023/04/08 14:47:01;;;;;;;19.80;12.17;;;;;;;5.18;100.00;97080.59;10458625;28;20219;-74
2023/04/08 14:52:01;;;;;;;20.63;13.67;;;;;;;5.02;100.00;97082.66;10457872;28;20707;-74
2023/04/08 14:57:02;;;;;;;24.67;14.70;;;;;;;5.08;100.00;97095.22;10458217;28;20648;-75
2023/04/08 15:02:02;;;;;;;20.23;13.57;;;;;;;5.21;100.00;97098.56;10457204;28;20223;-74
2023/04/08 15:07:03;;;;;;;21.73;13.70;;;;;;;5.14;100.00;97098.16;10457805;28;20196;-75
2023/04/08 15:12:04;;;;;;;24.47;15.10;;;;;;;5.17;100.00;97099.72;10439322;28;20307;-74
2023/04/08 15:17:04;;;;;;;24.53;15.57;;;;;;;5.10;100.00;97112.34;10456989;28;20192;-74
2023/04/08 15:22:04;;;;;;;23.77;15.67;;;;;;;4.87;100.00;97120.97;10457232;28;20216;-74
2023/04/08 15:27:05;;;;;;;24.77;15.60;;;;;;;4.86;100.00;97127.94;10456398;28;20334;-74
2023/04/08 15:32:05;;;;;;;27.23;16.77;;;;;;;4.70;100.00;97130.81;10455747;28;20188;-74
2023/04/08 15:37:06;;;;;;;26.50;16.60;;;;;;;4.68;100.00;97131.84;10455769;28;20192;-75
2023/04/08 15:42:06;;;;;;;28.57;17.77;;;;;;;4.66;100.00;97138.91;10455804;28;20227;-74
2023/04/08 15:47:07;;;;;;;27.70;18.10;;;;;;;4.72;100.00;97152.28;10456627;28;20264;-74
2023/04/08 15:52:07;;;;;;;27.70;17.60;;;;;;;4.94;100.00;97154.16;10455427;28;20180;-75
2023/04/08 15:57:08;;;;;;;30.97;19.37;;;;;;;4.87;100.00;97155.56;10455883;28;20192;-75
2023/04/08 16:02:08;;;;;;;29.67;17.67;;;;;;;5.06;100.00;97157.63;10455009;28;20369;-74
2023/04/08 16:07:08;;;;;;;25.40;16.40;;;;;;;5.03;100.00;97157.84;10455798;28;20190;-74
2023/04/08 16:12:09;;;;;;;27.93;17.67;;;;;;;5.26;100.00;97165.75;10454886;28;20196;-74
2023/04/08 16:17:10;;;;;;;27.43;17.70;;;;;;;5.12;100.00;97171.97;10455205;28;20279;-74
2023/04/08 16:22:10;;;;;;;28.43;18.17;;;;;;;4.98;100.00;97168.56;10454578;28;20227;-74
2023/04/08 16:27:10;;;;;;;28.07;19.30;;;;;;;4.73;100.00;97182.50;10454267;28;20195;-74
2023/04/08 16:32:11;;;;;;;32.00;19.77;;;;;;;4.55;100.00;97188.94;10454388;28;20271;-74
2023/04/08 16:37:11;;;;;;;30.97;21.07;;;;;;;4.56;100.00;97191.44;10453864;28;20203;-74
2023/04/08 16:42:11;;;;;;;33.83;20.40;;;;;;;4.50;100.00;97189.25;10453297;28;20231;-74
2023/04/08 16:47:12;;;;;;;36.23;22.27;;;;;;;4.53;100.00;97199.44;10453440;28;20287;-74
2023/04/08 16:52:12;;;;;;;36.53;22.33;;;;;;;4.38;100.00;97190.97;10453511;28;20196;-74
2023/04/08 16:57:12;;;;;;;36.37;22.83;;;;;;;4.43;100.00;97198.44;10452839;28;20192;-74
2023/04/08 17:02:13;;;;;;;33.80;21.40;;;;;;;4.42;100.00;97200.19;10453056;28;20302;-74
2023/04/08 17:07:13;;;;;;;33.90;22.73;;;;;;;4.23;100.00;97210.19;10452988;28;20262;-73
2023/04/08 17:12:14;;;;;;;37.33;23.30;;;;;;;4.24;100.00;97214.41;10452261;28;20184;-73
2023/04/08 17:17:15;;;;;;;32.87;21.70;;;;;;;4.23;100.00;97223.97;10452506;28;20735;-74
2023/04/08 17:22:15;;;;;;;37.30;23.97;;;;;;;4.21;100.00;97228.44;10451907;28;20223;-74
2023/04/08 17:27:16;;;;;;;41.60;24.93;;;;;;;4.12;100.00;97234.25;10452082;28;20192;-74
2023/04/08 17:32:16;;;;;;;43.30;26.27;;;;;;;4.08;100.00;97235.38;10451804;28;20296;-74
2023/04/08 17:37:16;;;;;;;42.67;25.00;;;;;;;4.00;100.00;97241.06;10451366;28;20198;-74
2023/04/08 17:42:21;;;;;;;39.47;24.00;;;;;;;3.91;100.00;97245.09;10450972;28;20235;-73
2023/04/08 17:47:21;;;;;;;39.13;23.00;;;;;;;3.80;100.00;97249.31;10451476;28;20191;-74
2023/04/08 17:52:21;;;;;;;38.33;22.60;;;;;;;3.77;100.00;97255.56;10451196;28;20564;-74
2023/04/08 17:57:22;;;;;;;38.07;23.57;;;;;;;3.68;100.00;97269.94;10450812;28;20622;-73
2023/04/08 18:02:22;;;;;;;37.17;23.20;;;;;;;3.72;100.00;97270.56;10451013;28;20586;-74
2023/04/08 18:07:22;;;;;;;35.47;22.13;;;;;;;3.65;100.00;97285.69;10450396;28;20693;-74
2023/04/08 18:12:25;;;;;;;35.47;22.23;;;;;;;3.68;100.00;97284.66;10450115;28;20221;-74
2023/04/08 18:17:26;;;;;;;35.80;22.37;;;;;;;3.60;100.00;97286.91;10449959;28;20192;-74
2023/04/08 18:22:26;;;;;;;36.80;22.87;;;;;;;3.51;100.00;97296.94;10449333;28;20377;-74
2023/04/08 18:27:27;;;;;;;43.30;25.33;;;;;;;3.62;100.00;97296.25;10449753;28;20817;-74
2023/04/08 18:32:27;;;;;;;31.87;21.67;;;;;;;3.51;100.00;97309.06;10449527;28;20664;-74
2023/04/08 18:37:29;;;;;;;37.37;24.57;;;;;;;3.51;100.00;97312.47;10449092;28;20728;-73
2023/04/08 18:42:29;;;;;;;36.73;22.37;;;;;;;3.48;100.00;97314.44;10431577;28;20228;-73
2023/04/08 18:47:30;;;;;;;48.73;28.13;;;;;;;3.40;100.00;97327.88;10449611;28;20184;-73
2023/04/08 18:52:31;;;;;;;52.70;30.27;;;;;;;3.50;100.00;97334.09;10448997;28;20275;-73
2023/04/08 18:57:32;;;;;;;51.00;28.67;;;;;;;3.50;100.00;97336.69;10448748;28;20282;-73
2023/04/08 19:02:32;;;;;;;44.57;26.27;;;;;;;3.52;100.00;97341.78;10448685;28;20207;-74
2023/04/08 19:07:33;;;;;;;46.17;26.50;;;;;;;3.47;100.00;97347.25;10449604;28;20287;-73
2023/04/08 19:12:33;;;;;;;40.83;23.17;;;;;;;3.52;100.00;97345.22;10456217;28;20191;-73
2023/04/08 19:17:33;;;;;;;35.10;21.87;;;;;;;3.43;100.00;97342.38;10456555;28;20331;-73
2023/04/08 19:28:55;;;;;;;35.23;21.07;;;;;;;3.47;100.00;97339.47;10456983;28;20184;-74
2023/04/08 19:33:56;;;;;;;34.23;20.33;;;;;;;3.31;100.00;97338.81;10455980;28;20622;-74
2023/04/08 19:38:56;;;;;;;36.20;22.53;;;;;;;3.13;100.00;97343.34;10455106;28;20681;-74
2023/04/08 19:43:57;;;;;;;35.47;22.80;;;;;;;3.02;100.00;97331.91;10454880;28;20584;-74
2023/04/08 19:48:57;;;;;;;37.67;22.53;;;;;;;2.81;100.00;97339.22;10454750;28;20192;-73
2023/04/08 19:53:58;;;;;;;37.80;23.33;;;;;;;2.73;100.00;97344.03;10455054;28;20242;-74
2023/04/08 19:59:00;;;;;;;37.90;22.70;;;;;;;2.91;100.00;97344.69;10455025;28;20208;-74
2023/04/08 20:04:01;;;;;;;38.53;23.00;;;;;;;2.72;100.00;97351.88;10453628;28;20220;-74
2023/04/08 20:09:04;;;;;;;36.57;21.90;;;;;;;2.78;100.00;97352.31;10432649;28;20192;-74
2023/04/08 20:14:04;;;;;;;39.90;20.97;;;;;;;2.64;100.00;97354.91;10435898;28;20180;-74
2023/04/08 20:19:05;;;;;;;39.70;21.00;;;;;;;2.52;100.00;97364.22;10424072;28;20246;-74
2023/04/08 20:24:06;;;;;;;35.77;22.47;;;;;;;2.48;100.00;97362.72;10412298;28;20228;-74
2023/04/08 20:29:06;;;;;;;37.47;22.57;;;;;;;2.35;100.00;97372.16;10412247;28;20197;-74
2023/04/08 20:34:07;;;;;;;37.13;22.03;;;;;;;2.20;100.00;97366.94;10412044;28;20219;-74
2023/04/08 20:39:10;;;;;;;35.10;22.00;;;;;;;1.68;100.00;97360.38;10419496;28;20195;-74
2023/04/08 20:44:11;;;;;;;38.97;22.17;;;;;;;1.38;100.00;97362.91;10412276;28;20682;-74
2023/04/08 20:49:11;;;;;;;33.33;20.10;;;;;;;1.02;100.00;97361.38;10427851;28;20262;-74
2023/04/08 20:54:12;;;;;;;36.00;20.50;;;;;;;0.68;100.00;97356.22;10429145;28;20279;-74
2023/04/08 20:59:12;;;;;;;38.27;22.57;;;;;;;0.31;100.00;97350.38;10452630;28;20199;-74
2023/04/08 21:04:12;;;;;;;41.60;22.43;;;;;;;0.13;100.00;97349.53;10451181;28;20665;-74
2023/04/08 21:09:13;;;;;;;47.07;24.47;;;;;;;0.21;100.00;97369.75;10451750;28;20551;-74
2023/04/08 21:14:14;;;;;;;45.00;25.57;;;;;;;-0.14;100.00;97382.63;10451277;28;20504;-74
2023/04/08 21:19:14;;;;;;;47.90;25.77;;;;;;;-0.08;100.00;97399.53;10451045;28;20201;-74
2023/04/08 21:24:15;;;;;;;46.00;24.87;;;;;;;-0.28;100.00;97395.31;10451791;28;20355;-74
2023/04/08 21:29:15;;;;;;;44.83;23.20;;;;;;;-0.23;100.00;97398.50;10451278;28;20278;-75
2023/04/08 21:34:15;;;;;;;47.17;25.83;;;;;;;-0.53;100.00;97401.63;10450946;28;20208;-74
2023/04/08 21:39:16;;;;;;;52.77;26.43;;;;;;;-0.67;100.00;97419.41;10451093;28;20192;-74
2023/04/08 21:44:16;;;;;;;61.60;29.30;;;;;;;-0.70;100.00;97432.41;10451027;28;20238;-74
2023/04/08 21:49:17;;;;;;;64.10;30.07;;;;;;;-0.53;100.00;97423.94;10433831;28;20212;-74
2023/04/08 21:54:17;;;;;;;62.80;30.93;;;;;;;-0.60;100.00;97425.94;10451240;28;20188;-74
2023/04/08 21:59:19;;;;;;;58.03;27.60;;;;;;;-0.61;100.00;97432.84;10450899;28;20261;-74
2023/04/08 22:04:19;;;;;;;60.23;28.93;;;;;;;-0.91;100.00;97427.31;10451265;28;20744;-74
2023/04/08 22:09:20;;;;;;;60.27;30.77;;;;;;;-1.04;100.00;97426.19;10450709;28;20201;-74
2023/04/08 22:14:20;;;;;;;54.07;26.63;;;;;;;-0.97;100.00;97425.84;10433026;28;20191;-74
2023/04/08 22:19:21;;;;;;;47.47;23.63;;;;;;;-0.98;100.00;97413.06;10450516;28;20201;-74
2023/04/08 22:24:21;;;;;;;45.10;25.20;;;;;;;-1.16;100.00;97415.53;10450613;28;20321;-74
2023/04/08 22:29:21;;;;;;;46.13;25.50;;;;;;;-1.44;100.00;97409.03;10450818;28;20555;-74
2023/04/08 22:34:22;;;;;;;49.23;25.93;;;;;;;-1.37;100.00;97411.31;10450051;28;20673;-74
2023/04/08 22:39:24;;;;;;;53.83;25.60;;;;;;;-1.33;100.00;97410.28;10450016;28;20904;-74
2023/04/08 22:44:25;;;;;;;52.10;26.40;;;;;;;-1.39;100.00;97411.41;10455279;28;20578;-74
2023/04/08 22:49:25;;;;;;;55.10;29.43;;;;;;;-1.38;100.00;97412.22;10458490;28;20195;-75
2023/04/08 22:54:26;;;;;;;54.93;26.93;;;;;;;-1.32;100.00;97411.97;10458245;28;20184;-74
2023/04/08 22:59:26;;;;;;;54.70;27.83;;;;;;;-1.40;100.00;97411.47;10457615;28;20263;-73
2023/04/08 23:04:26;;;;;;;70.57;31.73;;;;;;;-1.42;100.00;97419.22;10458072;28;20220;-74
2023/04/08 23:09:27;;;;;;;74.17;32.23;;;;;;;-1.40;100.00;97422.56;10457410;28;20202;-74
2023/04/08 23:14:27;;;;;;;52.80;24.87;;;;;;;-1.35;100.00;97427.50;10457495;28;20656;-74
2023/04/08 23:19:28;;;;;;;49.43;25.50;;;;;;;-1.42;100.00;97433.78;10457194;28;20283;-74
2023/04/08 23:24:28;;;;;;;60.47;28.43;;;;;;;-1.49;100.00;97428.91;10457010;28;20227;-74
2023/04/08 23:29:28;;;;;;;55.33;27.90;;;;;;;-1.56;100.00;97435.22;10456601;28;20203;-75
2023/04/08 23:34:29;;;;;;;63.60;29.40;;;;;;;-1.74;100.00;97428.28;10456323;28;20192;-74